createdAt,value
2022-09-06T00:00:38.769Z,18.86
2022-09-06T00:01:39.386Z,18.78
2022-09-06T00:02:40.434Z,18.91
2022-09-06T00:03:41.558Z,18.88
2022-09-06T00:04:41.540Z,18.74
2022-09-06T00:05:43.046Z,18.78
2022-09-06T00:06:43.244Z,18.74
2022-09-06T00:07:44.455Z,18.73
2022-09-06T00:08:44.082Z,18.74
2022-09-06T00:09:45.004Z,18.79
2022-09-06T00:10:45.632Z,18.68
2022-09-06T00:11:46.445Z,18.79
2022-09-06T00:12:47.155Z,18.82
2022-09-06T00:13:47.665Z,18.79
2022-09-06T00:14:47.863Z,18.79
2022-09-06T00:15:48.995Z,18.81
2022-09-06T00:16:49.391Z,18.81
2022-09-06T00:17:49.885Z,18.78
2022-09-06T00:18:50.536Z,18.83
2022-09-06T00:19:51.037Z,18.76
2022-09-06T00:20:51.941Z,18.78
2022-09-06T00:21:52.443Z,18.67
2022-09-06T00:22:52.574Z,18.78
2022-09-06T00:23:52.494Z,18.67
2022-09-06T00:24:53.413Z,18.76
2022-09-06T00:25:53.607Z,18.73
2022-09-06T00:26:53.813Z,18.68
2022-09-06T00:27:54.733Z,18.73
2022-09-06T00:28:55.947Z,18.82
2022-09-06T00:29:56.171Z,18.79
2022-09-06T00:30:56.688Z,18.73
2022-09-06T00:31:57.728Z,18.76
2022-09-06T00:32:57.738Z,18.79
2022-09-06T00:33:58.231Z,18.71
2022-09-06T00:34:58.878Z,18.76
2022-09-06T00:35:59.823Z,18.67
2022-09-06T00:37:00.123Z,18.7
2022-09-06T00:38:00.325Z,18.73
2022-09-06T00:39:00.251Z,18.71
2022-09-06T00:40:01.714Z,18.7
2022-09-06T00:41:02.322Z,18.64
2022-09-06T00:42:02.220Z,18.73
2022-09-06T00:43:02.653Z,18.71
2022-09-06T00:44:03.596Z,18.7
2022-09-06T00:45:04.242Z,18.66
2022-09-06T00:46:04.993Z,18.66
2022-09-06T00:47:05.759Z,18.67
2022-09-06T00:48:06.393Z,18.68
2022-09-06T00:49:07.597Z,18.64
2022-09-06T00:50:07.247Z,18.67
2022-09-06T00:51:08.194Z,18.55
2022-09-06T00:52:09.417Z,18.63
2022-09-06T00:53:10.438Z,18.61
2022-09-06T00:54:11.062Z,18.61
2022-09-06T00:55:12.025Z,18.6
2022-09-06T00:56:12.229Z,18.63
2022-09-06T00:57:12.548Z,18.64
2022-09-06T00:58:12.894Z,18.58
2022-09-06T00:59:14.392Z,18.58
2022-09-06T01:00:14.618Z,18.57
2022-09-06T01:01:15.426Z,18.64
2022-09-06T01:02:16.134Z,18.55
2022-09-06T01:03:16.989Z,18.6
2022-09-06T01:04:17.191Z,18.57
2022-09-06T01:05:18.395Z,18.66
2022-09-06T01:06:18.886Z,18.6
2022-09-06T01:07:19.476Z,18.63
2022-09-06T01:08:19.414Z,18.6
2022-09-06T01:09:20.771Z,18.6
2022-09-06T01:10:20.969Z,18.57
2022-09-06T01:11:21.590Z,18.57
2022-09-06T01:12:22.235Z,18.61
2022-09-06T01:13:22.953Z,18.57
2022-09-06T01:14:24.168Z,18.53
2022-09-06T01:15:24.611Z,18.52
2022-09-06T01:16:25.483Z,18.58
2022-09-06T01:17:26.128Z,18.61
2022-09-06T01:18:26.838Z,18.55
2022-09-06T01:19:27.109Z,18.63
2022-09-06T01:20:27.304Z,18.63
2022-09-06T01:21:27.224Z,18.6
2022-09-06T01:22:28.415Z,18.64
2022-09-06T01:23:29.416Z,18.63
2022-09-06T01:24:29.908Z,18.64
2022-09-06T01:25:29.828Z,18.55
2022-09-06T01:26:30.466Z,18.58
2022-09-06T01:27:30.951Z,18.63
2022-09-06T01:28:30.694Z,18.61
2022-09-06T01:29:31.033Z,18.58
2022-09-06T01:30:31.240Z,18.6
2022-09-06T01:31:32.011Z,18.57
2022-09-06T01:32:33.224Z,18.61
2022-09-06T01:33:33.237Z,18.58
2022-09-06T01:34:34.148Z,18.64
2022-09-06T01:35:35.046Z,18.63
2022-09-06T01:36:42.570Z,18.6
2022-09-06T01:37:36.257Z,18.58
2022-09-06T01:38:37.446Z,18.63
2022-09-06T01:39:37.550Z,18.67
2022-09-06T01:40:38.591Z,18.73
2022-09-06T01:41:39.212Z,18.67
2022-09-06T01:42:40.129Z,18.57
2022-09-06T01:43:40.822Z,18.64
2022-09-06T01:44:41.720Z,18.68
2022-09-06T01:45:42.748Z,18.58
2022-09-06T01:46:43.860Z,18.67
2022-09-06T01:47:44.506Z,18.57
2022-09-06T01:48:44.703Z,18.58
2022-09-06T01:49:45.349Z,18.61
2022-09-06T01:50:46.246Z,18.58
2022-09-06T01:51:46.586Z,18.58
2022-09-06T01:52:47.486Z,18.63
2022-09-06T01:53:48.487Z,18.63
2022-09-06T01:54:48.387Z,18.57
2022-09-06T01:55:49.030Z,18.61
2022-09-06T01:56:49.924Z,18.57
2022-09-06T01:57:50.858Z,18.55
2022-09-06T01:58:51.051Z,18.52
2022-09-06T01:59:51.967Z,18.61
2022-09-06T02:00:53.208Z,18.57
2022-09-06T02:01:53.481Z,18.58
2022-09-06T02:02:53.423Z,18.61
2022-09-06T02:03:54.740Z,18.61
2022-09-06T02:04:54.961Z,18.6
2022-09-06T02:05:55.574Z,18.63
2022-09-06T02:06:56.773Z,18.57
2022-09-06T02:07:57.065Z,18.52
2022-09-06T02:08:57.690Z,18.61
2022-09-06T02:09:57.911Z,18.68
2022-09-06T02:10:58.249Z,18.6
2022-09-06T02:11:59.167Z,18.67
2022-09-06T02:13:00.398Z,18.57
2022-09-06T02:14:01.398Z,18.66
2022-09-06T02:15:01.593Z,18.68
2022-09-06T02:16:02.811Z,18.79
2022-09-06T02:17:03.313Z,18.76
2022-09-06T02:18:03.654Z,18.7
2022-09-06T02:19:04.547Z,18.73
2022-09-06T02:20:05.047Z,18.71
2022-09-06T02:21:05.649Z,18.7
2022-09-06T02:22:06.849Z,18.71
2022-09-06T02:23:07.773Z,18.64
2022-09-06T02:24:08.078Z,18.71
2022-09-06T02:25:08.295Z,18.73
2022-09-06T02:26:08.919Z,18.81
2022-09-06T02:27:10.126Z,18.74
2022-09-06T02:28:11.027Z,18.78
2022-09-06T02:29:11.263Z,18.73
2022-09-06T02:30:11.195Z,18.78
2022-09-06T02:31:11.746Z,18.76
2022-09-06T02:32:11.865Z,18.76
2022-09-06T02:33:12.365Z,18.78
2022-09-06T02:34:12.068Z,18.74
2022-09-06T02:35:12.681Z,18.76
2022-09-06T02:36:13.603Z,18.78
2022-09-06T02:37:14.538Z,18.74
2022-09-06T02:38:14.736Z,18.73
2022-09-06T02:39:15.116Z,18.74
2022-09-06T02:40:16.008Z,18.74
2022-09-06T02:41:16.903Z,18.81
2022-09-06T02:42:17.127Z,18.74
2022-09-06T02:43:17.327Z,18.82
2022-09-06T02:44:17.627Z,18.83
2022-09-06T02:45:17.546Z,18.74
2022-09-06T02:46:17.702Z,18.82
2022-09-06T02:47:18.120Z,18.78
2022-09-06T02:48:19.038Z,18.81
2022-09-06T02:49:19.932Z,18.71
2022-09-06T02:50:20.126Z,18.82
2022-09-06T02:51:21.323Z,18.81
2022-09-06T02:52:21.525Z,18.76
2022-09-06T02:53:21.852Z,18.73
2022-09-06T02:54:22.282Z,18.79
2022-09-06T02:55:21.926Z,18.76
2022-09-06T02:56:22.972Z,18.82
2022-09-06T02:57:23.880Z,18.74
2022-09-06T02:58:24.625Z,18.81
2022-09-06T02:59:25.573Z,18.78
2022-09-06T03:00:26.770Z,18.74
2022-09-06T03:01:27.379Z,18.74
2022-09-06T03:02:28.240Z,18.79
2022-09-06T03:03:28.638Z,18.71
2022-09-06T03:04:29.381Z,18.74
2022-09-06T03:05:29.873Z,18.76
2022-09-06T03:06:29.791Z,18.73
2022-09-06T03:07:30.745Z,18.66
2022-09-06T03:08:31.560Z,18.74
2022-09-06T03:09:31.475Z,18.76
2022-09-06T03:10:32.116Z,18.73
2022-09-06T03:11:32.743Z,18.73
2022-09-06T03:12:33.398Z,18.79
2022-09-06T03:13:34.317Z,18.67
2022-09-06T03:14:35.300Z,18.7
2022-09-06T03:15:35.221Z,18.7
2022-09-06T03:16:36.625Z,18.76
2022-09-06T03:17:36.407Z,18.66
2022-09-06T03:18:37.327Z,18.67
2022-09-06T03:19:37.651Z,18.81
2022-09-06T03:20:43.047Z,18.78
2022-09-06T03:21:38.965Z,18.67
2022-09-06T03:22:40.160Z,18.7
2022-09-06T03:23:40.365Z,18.67
2022-09-06T03:24:40.768Z,18.64
2022-09-06T03:25:40.986Z,18.64
2022-09-06T03:26:41.908Z,18.78
2022-09-06T03:27:43.129Z,18.68
2022-09-06T03:28:43.046Z,18.67
2022-09-06T03:29:44.243Z,18.67
2022-09-06T03:30:45.305Z,18.67
2022-09-06T03:31:45.423Z,18.64
2022-09-06T03:32:46.636Z,18.66
2022-09-06T03:33:47.412Z,18.61
2022-09-06T03:34:47.390Z,18.74
2022-09-06T03:35:48.008Z,18.66
2022-09-06T03:36:48.206Z,18.57
2022-09-06T03:37:49.125Z,18.6
2022-09-06T03:38:49.748Z,18.61
2022-09-06T03:39:50.200Z,18.6
2022-09-06T03:40:50.551Z,18.58
2022-09-06T03:41:51.197Z,18.55
2022-09-06T03:42:51.415Z,18.55
2022-09-06T03:43:52.058Z,18.53
2022-09-06T03:44:53.065Z,18.55
2022-09-06T03:45:53.490Z,18.45
2022-09-06T03:46:53.621Z,18.52
2022-09-06T03:47:54.520Z,18.51
2022-09-06T03:48:55.439Z,18.49
2022-09-06T03:49:55.639Z,18.49
2022-09-06T03:50:55.837Z,18.51
2022-09-06T03:51:56.339Z,18.48
2022-09-06T03:52:56.681Z,18.48
2022-09-06T03:53:57.594Z,18.51
2022-09-06T03:54:57.315Z,18.51
2022-09-06T03:55:58.227Z,18.55
2022-09-06T03:56:58.571Z,18.55
2022-09-06T03:57:59.488Z,18.53
2022-09-06T03:58:59.704Z,18.57
2022-09-06T04:00:00.315Z,18.57
2022-09-06T04:01:01.023Z,18.48
2022-09-06T04:02:01.431Z,18.57
2022-09-06T04:03:07.108Z,18.58
2022-09-06T04:04:02.318Z,18.53
2022-09-06T04:05:02.754Z,18.61
2022-09-06T04:06:03.975Z,18.61
2022-09-06T04:07:03.888Z,18.57
2022-09-06T04:08:05.109Z,18.67
2022-09-06T04:09:05.423Z,18.68
2022-09-06T04:10:06.613Z,18.66
2022-09-06T04:11:06.957Z,18.73
2022-09-06T04:12:08.174Z,18.67
2022-09-06T04:13:08.393Z,18.67
2022-09-06T04:14:09.009Z,18.67
2022-09-06T04:15:09.745Z,18.71
2022-09-06T04:16:10.238Z,18.66
2022-09-06T04:17:11.305Z,18.78
2022-09-06T04:18:14.500Z,18.74
2022-09-06T04:19:11.691Z,18.73
2022-09-06T04:20:12.315Z,18.64
2022-09-06T04:21:13.510Z,18.73
2022-09-06T04:22:13.434Z,18.68
2022-09-06T04:23:13.351Z,18.76
2022-09-06T04:24:14.551Z,18.74
2022-09-06T04:25:14.535Z,18.83
2022-09-06T04:26:15.168Z,18.71
2022-09-06T04:27:15.387Z,18.81
2022-09-06T04:28:16.311Z,18.78
2022-09-06T04:29:17.031Z,18.74
2022-09-06T04:30:16.677Z,18.68
2022-09-06T04:31:17.898Z,18.79
2022-09-06T04:32:19.033Z,18.91
2022-09-06T04:33:19.636Z,18.89
2022-09-06T04:34:20.248Z,18.91
2022-09-06T04:35:20.258Z,18.91
2022-09-06T04:36:20.880Z,18.91
2022-09-06T04:37:21.127Z,19.04
2022-09-06T04:38:22.176Z,18.91
2022-09-06T04:39:22.307Z,18.98
2022-09-06T04:40:22.348Z,18.98
2022-09-06T04:41:22.568Z,18.98
2022-09-06T04:42:23.794Z,18.98
2022-09-06T04:43:23.990Z,18.98
2022-09-06T04:44:24.887Z,19.04
2022-09-06T04:45:25.464Z,18.94
2022-09-06T04:46:25.667Z,19
2022-09-06T04:47:25.919Z,19.08
2022-09-06T04:48:25.936Z,18.97
2022-09-06T04:49:27.154Z,19.05
2022-09-06T04:50:27.647Z,19.07
2022-09-06T04:51:27.565Z,19.07
2022-09-06T04:52:30.747Z,19.01
2022-09-06T04:53:28.782Z,19.16
2022-09-06T04:54:29.700Z,19.09
2022-09-06T04:55:30.710Z,19.11
2022-09-06T04:56:30.930Z,19.11
2022-09-06T04:57:32.125Z,19.09
2022-09-06T04:58:32.842Z,19.2
2022-09-06T04:59:33.341Z,19.24
2022-09-06T05:00:32.955Z,19.24
2022-09-06T05:01:34.465Z,19.27
2022-09-06T05:02:34.721Z,19.34
2022-09-06T05:03:35.434Z,19.32
2022-09-06T05:04:35.356Z,19.38
2022-09-06T05:05:36.359Z,19.32
2022-09-06T05:06:36.414Z,19.48
2022-09-06T05:07:37.342Z,19.45
2022-09-06T05:08:38.709Z,19.38
2022-09-06T05:09:39.789Z,19.44
2022-09-06T05:10:39.983Z,19.53
2022-09-06T05:11:40.905Z,19.48
2022-09-06T05:12:44.771Z,19.52
2022-09-06T05:13:41.693Z,19.57
2022-09-06T05:14:42.315Z,19.63
2022-09-06T05:15:43.046Z,19.63
2022-09-06T05:16:43.495Z,19.78
2022-09-06T05:17:44.260Z,19.85
2022-09-06T05:18:45.190Z,19.84
2022-09-06T05:19:45.112Z,19.82
2022-09-06T05:20:46.368Z,19.81
2022-09-06T05:21:45.990Z,19.85
2022-09-06T05:22:47.190Z,19.84
2022-09-06T05:23:48.112Z,19.79
2022-09-06T05:24:48.963Z,19.77
2022-09-06T05:25:49.265Z,19.81
2022-09-06T05:26:49.461Z,19.79
2022-09-06T05:27:49.782Z,19.72
2022-09-06T05:28:50.727Z,19.64
2022-09-06T05:29:51.652Z,19.56
2022-09-06T05:30:51.574Z,19.47
2022-09-06T05:31:52.961Z,19.41
2022-09-06T05:32:53.403Z,19.39
2022-09-06T05:33:53.732Z,19.37
2022-09-06T05:34:54.648Z,19.23
2022-09-06T05:35:55.993Z,19.23
2022-09-06T05:36:57.264Z,19.07
2022-09-06T05:37:58.184Z,19.08
2022-09-06T05:38:58.103Z,18.86
2022-09-06T05:39:59.250Z,18.86
2022-09-06T05:40:59.650Z,18.73
2022-09-06T05:41:59.847Z,18.73
2022-09-06T05:43:00.350Z,18.53
2022-09-06T05:44:00.945Z,18.37
2022-09-06T05:45:01.849Z,18.24
2022-09-06T05:46:01.663Z,18.27
2022-09-06T05:47:02.240Z,18
2022-09-06T05:48:03.136Z,18
2022-09-06T05:49:04.355Z,17.9
2022-09-06T05:50:04.274Z,17.86
2022-09-06T05:51:04.918Z,17.91
2022-09-06T05:52:05.415Z,17.8
2022-09-06T05:53:05.913Z,17.76
2022-09-06T05:54:06.407Z,17.8
2022-09-06T05:55:06.606Z,17.78
2022-09-06T05:56:07.611Z,17.87
2022-09-06T05:57:08.116Z,17.87
2022-09-06T05:58:07.736Z,17.79
2022-09-06T05:59:08.361Z,17.79
2022-09-06T06:00:09.258Z,17.75
2022-09-06T06:01:10.123Z,17.8
2022-09-06T06:02:13.059Z,17.79
2022-09-06T06:03:11.894Z,17.76
2022-09-06T06:04:12.816Z,17.75
2022-09-06T06:05:13.315Z,17.75
2022-09-06T06:06:13.326Z,17.75
2022-09-06T06:07:13.649Z,17.72
2022-09-06T06:08:14.141Z,17.71
2022-09-06T06:09:14.638Z,17.76
2022-09-06T06:10:15.233Z,17.72
2022-09-06T06:11:15.146Z,17.8
2022-09-06T06:12:15.770Z,17.76
2022-09-06T06:13:16.014Z,17.73
2022-09-06T06:14:16.933Z,17.76
2022-09-06T06:15:18.157Z,17.73
2022-09-06T06:16:19.391Z,17.71
2022-09-06T06:17:19.436Z,17.71
2022-09-06T06:18:19.931Z,17.65
2022-09-06T06:19:20.158Z,17.69
2022-09-06T06:20:20.779Z,17.75
2022-09-06T06:21:21.975Z,17.73
2022-09-06T06:22:22.176Z,17.66
2022-09-06T06:23:22.676Z,17.71
2022-09-06T06:24:23.593Z,17.66
2022-09-06T06:25:23.782Z,17.71
2022-09-06T06:26:24.253Z,17.69
2022-09-06T06:27:24.869Z,17.75
2022-09-06T06:28:25.920Z,17.73
2022-09-06T06:29:25.867Z,17.8
2022-09-06T06:30:27.152Z,17.88
2022-09-06T06:31:27.283Z,17.87
2022-09-06T06:32:27.740Z,17.9
2022-09-06T06:33:28.361Z,17.97
2022-09-06T06:34:29.265Z,17.93
2022-09-06T06:35:30.485Z,17.95
2022-09-06T06:36:30.894Z,17.95
2022-09-06T06:37:31.526Z,17.95
2022-09-06T06:38:31.854Z,18
2022-09-06T06:39:32.949Z,18.13
2022-09-06T06:40:33.450Z,18.13
2022-09-06T06:41:33.357Z,18.21
2022-09-06T06:42:34.258Z,18.16
2022-09-06T06:43:34.890Z,18.24
2022-09-06T06:44:35.799Z,18.28
2022-09-06T06:45:36.958Z,18.27
2022-09-06T06:46:37.668Z,18.28
2022-09-06T06:47:38.595Z,18.33
2022-09-06T06:48:38.798Z,18.42
2022-09-06T06:49:39.014Z,18.36
2022-09-06T06:50:39.641Z,18.42
2022-09-06T06:51:39.562Z,18.36
2022-09-06T06:52:40.468Z,18.49
2022-09-06T06:53:40.689Z,18.51
2022-09-06T06:54:40.612Z,18.52
2022-09-06T06:55:41.831Z,18.55
2022-09-06T06:56:42.863Z,18.61
2022-09-06T06:57:43.359Z,18.57
2022-09-06T06:58:44.260Z,18.61
2022-09-06T06:59:44.482Z,18.61
2022-09-06T07:00:45.390Z,18.63
2022-09-06T07:01:46.044Z,18.68
2022-09-06T07:02:46.029Z,18.68
2022-09-06T07:03:47.025Z,18.67
2022-09-06T07:04:47.644Z,18.7
2022-09-06T07:06:18.454Z,18.61
2022-09-06T07:08:13.176Z,18.68
2022-09-06T07:09:13.829Z,18.79
2022-09-06T07:10:43.911Z,18.86
2022-09-06T07:11:15.116Z,18.89
2022-09-06T07:12:16.081Z,18.76
2022-09-06T07:13:16.010Z,18.92
2022-09-06T07:14:16.425Z,18.89
2022-09-06T07:15:16.644Z,19.05
2022-09-06T07:16:16.720Z,18.96
2022-09-06T07:17:16.786Z,18.92
2022-09-06T07:18:17.795Z,18.98
2022-09-06T07:20:16.603Z,19.05
2022-09-06T07:21:51.458Z,19.05
2022-09-06T07:22:52.148Z,19.11
2022-09-06T07:24:16.523Z,19.09
2022-09-06T07:25:21.810Z,19.15
2022-09-06T07:26:16.466Z,19.09
2022-09-06T07:27:46.565Z,19.09
2022-09-06T07:28:17.043Z,19.07
2022-09-06T07:29:17.522Z,19.08
2022-09-06T07:30:18.017Z,19.16
2022-09-06T07:32:13.860Z,19.09
2022-09-06T07:32:31.060Z,19.19
2022-09-06T07:33:32.056Z,19.17
2022-09-06T07:34:32.555Z,19.26
2022-09-06T07:35:32.475Z,19.23
2022-09-06T07:36:32.821Z,19.22
2022-09-06T07:37:33.463Z,19.27
2022-09-06T07:38:34.387Z,19.27
2022-09-06T07:39:35.237Z,19.27
2022-09-06T07:40:35.873Z,19.32
2022-09-06T07:41:36.365Z,19.32
2022-09-06T07:42:42.602Z,19.35
2022-09-06T07:43:36.798Z,19.41
2022-09-06T07:44:37.018Z,19.44
2022-09-06T07:45:36.636Z,19.38
2022-09-06T07:46:37.555Z,19.45
2022-09-06T07:48:07.497Z,19.34
2022-09-06T07:48:38.431Z,19.3
2022-09-06T07:49:40.759Z,19.3
2022-09-06T07:50:59.752Z,19.22
2022-09-06T07:51:57.367Z,19.26
2022-09-06T07:53:32.046Z,19.3
2022-09-06T07:54:38.022Z,19.27
2022-09-06T07:55:23.522Z,19.32
2022-09-06T07:56:23.467Z,19.29
2022-09-06T07:57:24.088Z,19.45
2022-09-06T07:58:25.591Z,19.47
2022-09-06T07:59:25.517Z,19.57
2022-09-06T08:00:26.854Z,19.49
2022-09-06T08:01:27.992Z,19.52
2022-09-06T08:02:28.434Z,19.57
2022-09-06T08:03:29.203Z,19.6
2022-09-06T08:04:29.230Z,19.64
2022-09-06T08:06:15.220Z,19.67
2022-09-06T08:08:57.994Z,19.67
2022-09-06T08:09:16.146Z,19.66
2022-09-06T08:10:18.901Z,19.66
2022-09-06T08:11:16.652Z,19.66
2022-09-06T08:12:17.851Z,19.66
2022-09-06T08:13:18.283Z,19.66
2022-09-06T08:14:20.503Z,19.66
2022-09-06T08:15:19.130Z,19.6
2022-09-06T08:16:20.334Z,19.74
2022-09-06T08:17:20.492Z,19.59
2022-09-06T08:18:21.409Z,19.66
2022-09-06T08:19:21.740Z,19.64
2022-09-06T08:20:22.340Z,19.66
2022-09-06T08:21:23.082Z,19.75
2022-09-06T08:22:23.310Z,19.81
2022-09-06T08:23:23.671Z,19.9
2022-09-06T08:24:24.788Z,19.75
2022-09-06T08:25:24.695Z,19.82
2022-09-06T08:26:25.034Z,19.85
2022-09-06T08:27:25.979Z,19.84
2022-09-06T08:28:29.385Z,19.97
2022-09-06T08:29:27.009Z,19.96
2022-09-06T08:30:27.658Z,19.96
2022-09-06T08:31:28.927Z,20
2022-09-06T08:32:29.356Z,19.96
2022-09-06T08:33:29.639Z,19.97
2022-09-06T08:34:30.611Z,20.08
2022-09-06T08:35:31.548Z,20.12
2022-09-06T08:36:32.802Z,20.08
2022-09-06T08:37:33.019Z,20.21
2022-09-06T08:38:33.347Z,20.08
2022-09-06T08:39:34.434Z,20.19
2022-09-06T08:40:34.250Z,20.14
2022-09-06T08:41:35.574Z,20.14
2022-09-06T08:42:35.793Z,20.15
2022-09-06T08:43:36.147Z,20.14
2022-09-06T08:45:06.845Z,20.22
2022-09-06T08:45:37.754Z,20.22
2022-09-06T08:46:38.725Z,20.33
2022-09-06T08:47:39.840Z,20.27
2022-09-06T08:48:40.488Z,20.29
2022-09-06T08:49:41.138Z,20.27
2022-09-06T08:50:42.065Z,20.37
2022-09-06T08:51:44.605Z,20.26
2022-09-06T08:53:17.042Z,20.29
2022-09-06T08:53:43.255Z,20.27
2022-09-06T08:54:43.912Z,20.36
2022-09-06T08:55:44.835Z,20.37
2022-09-06T08:56:45.343Z,20.46
2022-09-06T08:57:46.229Z,20.36
2022-09-06T08:58:46.439Z,20.49
2022-09-06T08:59:46.651Z,20.48
2022-09-06T09:00:47.012Z,20.58
2022-09-06T09:01:47.293Z,20.59
2022-09-06T09:02:47.906Z,20.63
2022-09-06T09:03:48.849Z,20.71
2022-09-06T09:04:49.058Z,20.68
2022-09-06T09:05:49.711Z,20.66
2022-09-06T09:06:50.915Z,20.68
2022-09-06T09:07:51.843Z,20.8
2022-09-06T09:08:52.074Z,20.82
2022-09-06T09:09:52.422Z,20.86
2022-09-06T09:10:53.373Z,20.88
2022-09-06T09:11:53.388Z,20.98
2022-09-06T09:12:53.897Z,21
2022-09-06T09:13:56.537Z,21.1
2022-09-06T09:14:55.211Z,21.25
2022-09-06T09:15:55.194Z,21.28
2022-09-06T09:16:55.980Z,21.41
2022-09-06T09:17:57.199Z,21.58
2022-09-06T09:18:57.436Z,21.6
2022-09-06T09:19:58.074Z,21.69
2022-09-06T09:20:59.300Z,21.66
2022-09-06T09:21:59.369Z,21.69
2022-09-06T09:22:59.593Z,21.78
2022-09-06T09:24:00.522Z,21.84
2022-09-06T09:25:01.741Z,21.77
2022-09-06T09:26:02.666Z,21.8
2022-09-06T09:27:02.599Z,21.74
2022-09-06T09:28:03.323Z,21.77
2022-09-06T09:29:03.955Z,21.66
2022-09-06T09:30:50.373Z,21.62
2022-09-06T09:31:07.965Z,21.7
2022-09-06T09:32:08.438Z,21.7
2022-09-06T09:33:08.746Z,21.74
2022-09-06T09:34:09.250Z,21.84
2022-09-06T09:35:10.159Z,21.84
2022-09-06T09:36:10.104Z,22.07
2022-09-06T09:37:49.788Z,22.16
2022-09-06T09:38:18.343Z,22.23
2022-09-06T09:39:19.593Z,22.25
2022-09-06T09:40:20.784Z,22.4
2022-09-06T09:41:21.289Z,22.38
2022-09-06T09:42:21.339Z,22.49
2022-09-06T09:43:22.543Z,22.52
2022-09-06T09:44:23.050Z,22.56
2022-09-06T09:45:22.974Z,22.63
2022-09-06T09:46:23.327Z,22.63
2022-09-06T09:47:23.826Z,22.56
2022-09-06T09:48:24.063Z,22.49
2022-09-06T09:49:24.563Z,22.49
2022-09-06T09:50:25.529Z,22.49
2022-09-06T09:51:32.500Z,22.58
2022-09-06T09:52:26.855Z,22.55
2022-09-06T09:53:27.047Z,22.74
2022-09-06T09:54:27.653Z,22.83
2022-09-06T09:55:28.307Z,22.92
2022-09-06T09:56:28.547Z,23.01
2022-09-06T09:57:29.497Z,23.01
2022-09-06T09:58:29.716Z,23.04
2022-09-06T09:59:30.515Z,23.18
2022-09-06T10:00:31.337Z,23.17
2022-09-06T10:01:31.683Z,23.2
2022-09-06T10:02:32.316Z,23.11
2022-09-06T10:03:33.014Z,22.99
2022-09-06T10:04:52.558Z,22.91
2022-09-06T10:06:02.338Z,22.95
2022-09-06T10:07:17.216Z,22.92
2022-09-06T10:08:17.880Z,22.86
2022-09-06T10:09:24.151Z,22.78
2022-09-06T10:10:19.430Z,22.84
2022-09-06T10:11:20.364Z,22.73
2022-09-06T10:12:20.865Z,22.74
2022-09-06T10:13:20.938Z,22.76
2022-09-06T10:14:21.863Z,22.83
2022-09-06T10:15:22.770Z,22.73
2022-09-06T10:16:23.617Z,22.71
2022-09-06T10:17:24.028Z,22.83
2022-09-06T10:18:25.229Z,22.77
2022-09-06T10:19:26.164Z,22.81
2022-09-06T10:20:26.814Z,22.86
2022-09-06T10:21:28.024Z,22.74
2022-09-06T10:22:28.530Z,22.86
2022-09-06T10:24:28.983Z,22.95
2022-09-06T10:24:46.217Z,22.93
2022-09-06T10:25:50.567Z,22.92
2022-09-06T10:26:47.073Z,22.91
2022-09-06T10:28:12.235Z,22.96
2022-09-06T10:28:48.016Z,22.93
2022-09-06T10:29:48.719Z,23.02
2022-09-06T10:30:49.653Z,23.16
2022-09-06T10:31:50.245Z,23.07
2022-09-06T10:32:50.610Z,23.17
2022-09-06T10:33:50.677Z,23.26
2022-09-06T10:34:51.603Z,23.34
2022-09-06T10:35:51.569Z,23.37
2022-09-06T10:36:51.491Z,23.47
2022-09-06T10:37:52.540Z,23.49
2022-09-06T10:38:53.439Z,23.59
2022-09-06T10:39:54.490Z,23.62
2022-09-06T10:40:54.276Z,23.64
2022-09-06T10:41:55.494Z,23.62
2022-09-06T10:42:55.703Z,23.51
2022-09-06T10:43:56.047Z,23.58
2022-09-06T10:44:56.975Z,23.66
2022-09-06T10:45:57.205Z,23.64
2022-09-06T10:46:58.993Z,23.71
2022-09-06T10:47:59.524Z,23.82
2022-09-06T10:48:59.871Z,23.89
2022-09-06T10:50:00.539Z,23.92
2022-09-06T10:51:01.842Z,23.92
2022-09-06T10:52:02.480Z,23.94
2022-09-06T10:53:03.407Z,23.96
2022-09-06T10:54:03.762Z,24.07
2022-09-06T10:55:04.093Z,24.13
2022-09-06T10:56:07.407Z,24.28
2022-09-06T10:57:05.669Z,24.34
2022-09-06T10:58:27.385Z,24.59
2022-09-06T10:59:46.850Z,24.97
2022-09-06T11:00:45.469Z,25.29
2022-09-06T11:01:46.443Z,25.62
2022-09-06T11:02:46.962Z,25.86
2022-09-06T11:04:17.143Z,26.18
2022-09-06T11:05:50.440Z,26.16
2022-09-06T11:06:51.387Z,26.26
2022-09-06T11:08:52.183Z,26.27
2022-09-06T11:09:10.649Z,26.16
2022-09-06T11:10:11.857Z,26.48
2022-09-06T11:11:12.377Z,26.67
2022-09-06T11:12:12.670Z,26.71
2022-09-06T11:13:13.329Z,26.93
2022-09-06T11:14:14.251Z,27.08
2022-09-06T11:15:15.485Z,27.22
2022-09-06T11:16:15.619Z,27.28
2022-09-06T11:17:16.498Z,27.44
2022-09-06T11:18:17.446Z,27.63
2022-09-06T11:19:17.646Z,27.73
2022-09-06T11:20:18.282Z,27.93
2022-09-06T11:21:22.912Z,28.03
2022-09-06T11:22:19.422Z,28.18
2022-09-06T11:23:19.080Z,28.16
2022-09-06T11:24:20.748Z,28.18
2022-09-06T11:25:20.668Z,28.31
2022-09-06T11:26:21.247Z,28.41
2022-09-06T11:27:21.482Z,28.45
2022-09-06T11:28:22.401Z,28.57
2022-09-06T11:29:23.056Z,28.64
2022-09-06T11:30:25.519Z,28.8
2022-09-06T11:32:24.835Z,28.74
2022-09-06T11:32:42.037Z,28.77
2022-09-06T11:33:42.269Z,28.77
2022-09-06T11:34:42.186Z,28.82
2022-09-06T11:35:42.845Z,28.77
2022-09-06T11:36:43.553Z,28.6
2022-09-06T11:37:43.528Z,28.67
2022-09-06T11:38:44.172Z,28.77
2022-09-06T11:40:30.712Z,28.84
2022-09-06T11:40:47.718Z,28.93
2022-09-06T11:41:48.660Z,28.97
2022-09-06T11:42:49.178Z,29.15
2022-09-06T11:43:49.537Z,29.2
2022-09-06T11:44:50.772Z,29.34
2022-09-06T11:45:51.713Z,29.32
2022-09-06T11:46:52.142Z,29.35
2022-09-06T11:47:52.676Z,29.4
2022-09-06T11:48:52.927Z,29.58
2022-09-06T11:49:53.146Z,29.59
2022-09-06T11:50:54.478Z,29.57
2022-09-06T11:51:54.694Z,29.64
2022-09-06T11:52:55.924Z,29.65
2022-09-06T11:53:56.557Z,29.62
2022-09-06T11:54:56.890Z,29.67
2022-09-06T11:55:58.101Z,29.74
2022-09-06T11:56:58.539Z,29.73
2022-09-06T11:57:59.480Z,29.87
2022-09-06T11:59:00.401Z,29.99
2022-09-06T12:00:00.651Z,30.13
2022-09-06T12:01:00.628Z,30.08
2022-09-06T12:02:01.585Z,30.01
2022-09-06T12:04:09.190Z,30.08
2022-09-06T12:04:26.658Z,29.98
2022-09-06T12:05:27.870Z,30.13
2022-09-06T12:06:28.249Z,30.01
2022-09-06T12:07:28.826Z,29.98
2022-09-06T12:08:30.049Z,29.86
2022-09-06T12:09:30.105Z,29.84
2022-09-06T12:10:31.096Z,29.86
2022-09-06T12:11:35.859Z,29.92
2022-09-06T12:12:32.820Z,29.9
2022-09-06T12:13:33.180Z,29.98
2022-09-06T12:14:33.833Z,29.89
2022-09-06T12:15:34.814Z,29.95
2022-09-06T12:16:35.276Z,29.99
2022-09-06T12:17:35.002Z,29.96
2022-09-06T12:18:35.354Z,29.96
2022-09-06T12:19:36.036Z,29.86
2022-09-06T12:20:36.840Z,29.86
2022-09-06T12:21:37.476Z,29.84
2022-09-06T12:22:39.063Z,29.94
2022-09-06T12:23:39.699Z,29.9
2022-09-06T12:24:39.913Z,29.98
2022-09-06T12:25:40.532Z,29.86
2022-09-06T12:26:41.468Z,29.92
2022-09-06T12:27:42.529Z,29.99
2022-09-06T12:28:42.472Z,30.1
2022-09-06T12:29:43.098Z,30.13
2022-09-06T12:30:44.333Z,30.16
2022-09-06T12:31:44.951Z,30.2
2022-09-06T12:32:45.062Z,30.13
2022-09-06T12:33:45.703Z,30.18
2022-09-06T12:34:45.704Z,30.26
2022-09-06T12:36:10.223Z,30.54
2022-09-06T12:37:07.763Z,30.62
2022-09-06T12:38:08.496Z,30.74
2022-09-06T12:39:09.707Z,30.81
2022-09-06T12:40:10.995Z,30.77
2022-09-06T12:41:10.934Z,30.73
2022-09-06T12:42:11.564Z,30.69
2022-09-06T12:43:12.803Z,30.59
2022-09-06T12:44:12.469Z,30.44
2022-09-06T12:45:13.404Z,30.23
2022-09-06T12:46:14.048Z,30.08
2022-09-06T12:47:13.858Z,29.9
2022-09-06T12:48:14.575Z,29.81
2022-09-06T12:49:15.235Z,29.57
2022-09-06T12:50:16.232Z,29.39
2022-09-06T12:51:16.506Z,29.39
2022-09-06T12:53:23.784Z,29.15
2022-09-06T12:54:18.416Z,29.12
2022-09-06T12:55:19.630Z,29.05
2022-09-06T12:56:20.856Z,28.94
2022-09-06T12:57:20.799Z,28.83
2022-09-06T12:58:21.201Z,28.83
2022-09-06T12:59:22.470Z,28.7
2022-09-06T13:00:22.708Z,28.68
2022-09-06T13:01:24.122Z,28.62
2022-09-06T13:02:24.118Z,28.47
2022-09-06T13:03:24.945Z,28.37
2022-09-06T13:04:25.605Z,28.38
2022-09-06T13:05:26.553Z,28.25
2022-09-06T13:06:32.492Z,28.12
2022-09-06T13:07:28.128Z,28.06
2022-09-06T13:08:29.450Z,28.13
2022-09-06T13:09:29.773Z,28.13
2022-09-06T13:10:29.694Z,28.16
2022-09-06T13:11:30.627Z,28.2
2022-09-06T13:12:31.130Z,28.23
2022-09-06T13:13:31.345Z,28.38
2022-09-06T13:14:32.566Z,28.34